Time;durP1;ratioP1;P1;durP2;ratioP2;P2;SDS_P1;SDS_P2;PMS_P1;PMS_P2;Temp;Humidity;BMP_temperature;BMP_pressure;BME280_temperature;BME280_humidity;BME280_pressure;Samples;Min_cycle;Max_cycle;Signal;HPM_P1;HPM_P2
2023/05/19 00:00:14;;;;;;;;;;;;;;;;;;5046650;28;19912;-42
2023/05/19 05:09:32;;;;;;;;;;;;;;;;;;5013572;28;19920;-42
2023/05/19 05:11:58;;;;;;;;;;;;;;;;;;5031203;28;20451;-41
2023/05/19 05:14:24;;;;;;;;;;;;;;;;;;5031008;28;19972;-42
2023/05/19 05:16:50;;;;;;;;;;;;;;;;;;5031176;28;19909;-41
2023/05/19 05:19:16;;;;;;;;;;;;;;;;;;5031474;28;19909;-42
2023/05/19 05:21:42;;;;;;;;;;;;;;;;;;5031023;28;19939;-42
2023/05/19 05:24:08;;;;;;;;;;;;;;;;;;5032262;28;20252;-42
2023/05/19 05:26:34;;;;;;;;;;;;;;;;;;5050290;28;19913;-42
2023/05/19 05:29:00;;;;;;;;;;;;;;;;;;5050722;28;19923;-41
2023/05/19 05:31:26;;;;;;;;;;;;;;;;;;5051258;28;19920;-42
2023/05/19 05:33:51;;;;;;;;;;;;;;;;;;5050776;28;19913;-42
2023/05/19 05:36:17;;;;;;;;;;;;;;;;;;5050580;28;19909;-42
2023/05/19 05:38:44;;;;;;;;;;;;;;;;;;5050602;28;19939;-42
2023/05/19 05:41:10;;;;;;;;;;;;;;;;;;5050997;28;19921;-42
2023/05/19 05:43:36;;;;;;;;;;;;;;;;;;5050408;28;20445;-42
2023/05/19 05:46:02;;;;;;;;;;;;;;;;;;5049926;28;19946;-42
2023/05/19 05:48:28;;;;;;;;;;;;;;;;;;5050754;28;19912;-42
2023/05/19 05:50:54;;;;;;;;;;;;;;;;;;5050737;28;19908;-42
2023/05/19 05:53:20;;;;;;;;;;;;;;;;;;5050414;28;20125;-43
2023/05/19 05:55:46;;;;;;;;;;;;;;;;;;5050159;28;20330;-42
2023/05/19 05:58:13;;;;;;;;;;;;;;;;;;5050425;28;19920;-42
2023/05/19 06:00:42;;;;;;;;;;;;;;;;;;5046187;28;20043;-42
2023/05/19 06:03:08;;;;;;;;;;;;;;;;;;5050289;28;19919;-43
2023/05/19 06:05:34;;;;;;;;;;;;;;;;;;5046794;28;19924;-43
2023/05/19 06:08:00;;;;;;;;;;;;;;;;;;5046470;28;19913;-43
2023/05/19 06:10:26;;;;;;;;;;;;;;;;;;5039422;28;19921;-43
2023/05/19 06:12:52;;;;;;;;;;;;;;;;;;5049321;28;20091;-43
2023/05/19 06:15:19;;;;;;;;;;;;;;;;;;5028221;28;19913;-41
2023/05/19 06:17:45;;;;;;;;;;;;;;;;;;5046109;28;19913;-42
2023/05/19 06:20:11;;;;;;;;;;;;;;;;;;5047471;28;19931;-42
2023/05/19 06:22:37;;;;;;;;;;;;;;;;;;5051578;28;19912;-41
2023/05/19 06:25:03;;;;;;;;;;;;;;;;;;5051046;28;19971;-42
2023/05/19 06:27:29;;;;;;;;;;;;;;;;;;5039196;28;19913;-43
2023/05/19 06:29:55;;;;;;;;;;;;;;;;;;5031196;28;19909;-43
2023/05/19 06:32:21;;;;;;;;;;;;;;;;;;5043072;28;19921;-43
2023/05/19 06:34:53;;;;;;;;;;;;;;;;;;5051373;28;19974;-42
2023/05/19 06:37:19;;;;;;;;;;;;;;;;;;5051439;28;19947;-42
2023/05/19 06:39:44;;;;;;;;;;;;;;;;;;5044485;28;19917;-42
2023/05/19 06:42:10;;;;;;;;;;;;;;;;;;5042297;28;20411;-42
2023/05/19 06:44:36;;;;;;;;;;;;;;;;;;5031314;28;20432;-42
2023/05/19 06:47:02;;;;;;;;;;;;;;;;;;5029616;28;19920;-42
2023/05/19 06:49:28;;;;;;;;;;;;;;;;;;5029348;28;20419;-42
2023/05/19 06:51:54;;;;;;;;;;;;;;;;;;5029436;28;19958;-43
2023/05/19 06:54:20;;;;;;;;;;;;;;;;;;5035976;28;20326;-42
2023/05/19 06:56:46;;;;;;;;;;;;;;;;;;5049401;28;19917;-42
2023/05/19 06:59:12;;;;;;;;;;;;;;;;;;5044154;28;20305;-42
2023/05/19 07:01:38;;;;;;;;;;;;;;;;;;5029407;28;19959;-42
2023/05/19 07:04:04;;;;;;;;;;;;;;;;;;5029172;28;20408;-42
2023/05/19 07:06:30;;;;;;;;;;;;;;;;;;5041574;28;20300;-43
2023/05/19 07:08:56;;;;;;;;;;;;;;;;;;5046190;28;19920;-45
2023/05/19 07:11:22;;;;;;;;;;;;;;;;;;5043769;28;20026;-42
2023/05/19 07:13:48;;;;;;;;;;;;;;;;;;5047723;28;19920;-43
2023/05/19 07:16:14;;;;;;;;;;;;;;;;;;5039481;28;19925;-43
2023/05/19 07:18:40;;;;;;;;;;;;;;;;;;5041246;28;19913;-43
2023/05/19 07:21:06;;;;;;;;;;;;;;;;;;5042814;28;19921;-44
2023/05/19 07:23:32;;;;;;;;;;;;;;;;;;5047764;28;20413;-43
2023/05/19 07:25:58;;;;;;;;;;;;;;;;;;5049849;28;19956;-44
2023/05/19 07:28:24;;;;;;;;;;;;;;;;;;5049070;28;19944;-42
2023/05/19 07:30:50;;;;;;;;;;;;;;;;;;5049279;28;19912;-42
2023/05/19 07:33:16;;;;;;;;;;;;;;;;;;5043199;28;19913;-42
2023/05/19 07:35:44;;;;;;;;;;;;;;;;;;5048669;28;19920;-43
2023/05/19 07:38:10;;;;;;;;;;;;;;;;;;5043302;28;19951;-42
2023/05/19 07:40:36;;;;;;;;;;;;;;;;;;5045853;28;19964;-43
2023/05/19 07:43:02;;;;;;;;;;;;;;;;;;5045292;28;20036;-42
2023/05/19 07:45:27;;;;;;;;;;;;;;;;;;5040606;28;19917;-43
2023/05/19 07:47:53;;;;;;;;;;;;;;;;;;5048481;28;19916;-43
2023/05/19 07:50:19;;;;;;;;;;;;;;;;;;5030902;28;19944;-44
2023/05/19 07:52:45;;;;;;;;;;;;;;;;;;5029212;28;19943;-42
2023/05/19 07:55:12;;;;;;;;;;;;;;;;;;5028815;28;20550;-44
2023/05/19 07:57:38;;;;;;;;;;;;;;;;;;5047335;28;20294;-43
2023/05/19 08:00:08;;;;;;;;;;;;;;;;;;5048534;28;20007;-43
2023/05/19 08:02:35;;;;;;;;;;;;;;;;;;5047013;28;19908;-44
2023/05/19 08:05:01;;;;;;;;;;;;;;;;;;5043999;28;19978;-42
2023/05/19 08:07:27;;;;;;;;;;;;;;;;;;5049227;28;19928;-43
2023/05/19 08:09:52;;;;;;;;;;;;;;;;;;5032717;28;19921;-43
2023/05/19 08:12:18;;;;;;;;;;;;;;;;;;5028253;28;19948;-42
2023/05/19 08:14:44;;;;;;;;;;;;;;;;;;5028515;28;20518;-43
2023/05/19 08:17:10;;;;;;;;;;;;;;;;;;5034170;28;19913;-44
2023/05/19 08:19:36;;;;;;;;;;;;;;;;;;5047185;28;20034;-43
2023/05/19 08:22:02;;;;;;;;;;;;;;;;;;5044623;28;19963;-43
2023/05/19 08:24:29;;;;;;;;;;;;;;;;;;5034621;28;19920;-43
2023/05/19 08:26:55;;;;;;;;;;;;;;;;;;5033393;28;19936;-42
2023/05/19 08:29:21;;;;;;;;;;;;;;;;;;5037812;28;19924;-42
2023/05/19 08:31:47;;;;;;;;;;;;;;;;;;5035254;28;19920;-42
2023/05/19 08:34:13;;;;;;;;;;;;;;;;;;5036211;28;19920;-41
2023/05/19 08:36:39;;;;;;;;;;;;;;;;;;5037550;28;19909;-43
2023/05/19 08:39:05;;;;;;;;;;;;;;;;;;5037008;28;20048;-43
2023/05/19 08:41:31;;;;;;;;;;;;;;;;;;5039942;28;20403;-44
2023/05/19 08:45:14;;;;;;;;;;;;;;;;;;5082671;28;19931;-41
2023/05/19 08:47:40;;;;;;;;;;;;;;;;;;5072962;28;19916;-42
2023/05/19 08:50:09;;;;;;;;;;;;;;;;;;5073153;28;20473;-43
2023/05/19 08:52:35;;;;;;;;;;;;;;;;;;5073386;28;20341;-41
2023/05/19 08:55:01;;;;;;;;;;;;;;;;;;5074555;28;19994;-44
2023/05/19 08:57:27;;;;;;;;;;;;;;;;;;5072418;28;19951;-42
2023/05/19 08:59:53;;;;;;;;;;;;;;;;;;5071709;28;19908;-42
2023/05/19 09:02:19;;;;;;;;;;;;;;;;;;5071568;28;19910;-43
2023/05/19 09:04:46;;;;;;;;;;;;;;;;;;5073973;28;19913;-41
2023/05/19 09:07:12;;;;;;;;;;;;;;;;;;5064571;28;20453;-42
2023/05/19 09:09:42;;;;;;;;;;;;;;;;;;5069468;28;19913;-41
2023/05/19 09:12:08;;;;;;;;;;;;;;;;;;5066589;28;19939;-42
2023/05/19 09:14:34;;;;;;;;;;;;;;;;;;5067884;28;19946;-41
2023/05/19 09:17:00;;;;;;;;;;;;;;;;;;5066724;28;19917;-42
2023/05/19 09:19:26;;;;;;;;;;;;;;;;;;5062376;28;20039;-41
2023/05/19 09:21:52;;;;;;;;;;;;;;;;;;5063226;28;19901;-41
2023/05/19 09:24:17;;;;;;;;;;;;;;;;;;5063099;28;19919;-41
2023/05/19 09:26:44;;;;;;;;;;;;;;;;;;5063396;28;19905;-41
2023/05/19 09:29:10;;;;;;;;;;;;;;;;;;5063852;28;20372;-42
2023/05/19 09:31:36;;;;;;;;;;;;;;;;;;5063528;28;19909;-43
2023/05/19 09:34:02;;;;;;;;;;;;;;;;;;5063544;28;19904;-42
2023/05/19 09:36:28;;;;;;;;;;;;;;;;;;5063571;28;19979;-41
2023/05/19 09:38:54;;;;;;;;;;;;;;;;;;5063785;28;19950;-42
2023/05/19 09:41:21;;;;;;;;;;;;;;;;;;5063571;28;19905;-43
2023/05/19 09:43:47;;;;;;;;;;;;;;;;;;5063217;28;20410;-42
2023/05/19 09:46:14;;;;;;;;;;;;;;;;;;5063223;28;19951;-43
2023/05/19 09:48:41;;;;;;;;;;;;;;;;;;5063821;28;19904;-41
2023/05/19 09:51:09;;;;;;;;;;;;;;;;;;5063458;28;19904;-41
2023/05/19 09:53:35;;;;;;;;;;;;;;;;;;5063459;28;19905;-42
2023/05/19 09:56:00;;;;;;;;;;;;;;;;;;5052903;28;20461;-41
2023/05/19 09:58:26;;;;;;;;;;;;;;;;;;5048198;28;19990;-42
2023/05/19 10:00:53;;;;;;;;;;;;;;;;;;5048285;28;19916;-42
2023/05/19 10:03:19;;;;;;;;;;;;;;;;;;5048703;28;20155;-43
2023/05/19 10:05:45;;;;;;;;;;;;;;;;;;5048593;28;19911;-41
2023/05/19 10:08:11;;;;;;;;;;;;;;;;;;5048753;28;19901;-42
2023/05/19 10:10:37;;;;;;;;;;;;;;;;;;5048080;28;20379;-41
2023/05/19 10:13:04;;;;;;;;;;;;;;;;;;5047955;28;19909;-43
2023/05/19 10:15:30;;;;;;;;;;;;;;;;;;5048088;28;20367;-43
2023/05/19 10:17:56;;;;;;;;;;;;;;;;;;5047843;28;19944;-42
2023/05/19 10:20:22;;;;;;;;;;;;;;;;;;5048230;28;19904;-43
2023/05/19 10:22:47;;;;;;;;;;;;;;;;;;5047940;28;19909;-43
2023/05/19 10:25:17;;;;;;;;;;;;;;;;;;5047991;28;19915;-41
2023/05/19 10:27:43;;;;;;;;;;;;;;;;;;5047592;28;20023;-41
2023/05/19 10:30:09;;;;;;;;;;;;;;;;;;5048179;28;19999;-41
2023/05/19 10:32:35;;;;;;;;;;;;;;;;;;5048004;28;19939;-42
2023/05/19 10:35:00;;;;;;;;;;;;;;;;;;5047758;28;19950;-44
2023/05/19 10:37:27;;;;;;;;;;;;;;;;;;5047883;28;19924;-42
2023/05/19 10:39:54;;;;;;;;;;;;;;;;;;5047473;28;19948;-42
2023/05/19 10:42:20;;;;;;;;;;;;;;;;;;5047271;28;19904;-42
2023/05/19 10:44:47;;;;;;;;;;;;;;;;;;5047381;28;20430;-43
2023/05/19 10:47:13;;;;;;;;;;;;;;;;;;5048098;28;19908;-43
2023/05/19 10:49:38;;;;;;;;;;;;;;;;;;5048101;28;19935;-43
2023/05/19 10:52:04;;;;;;;;;;;;;;;;;;5047470;28;20295;-42
2023/05/19 10:54:32;;;;;;;;;;;;;;;;;;5047791;28;19904;-43
2023/05/19 10:56:58;;;;;;;;;;;;;;;;;;5047091;28;19911;-44
2023/05/19 10:59:24;;;;;;;;;;;;;;;;;;5047508;28;19969;-41
2023/05/19 11:01:50;;;;;;;;;;;;;;;;;;5047313;28;19975;-43
2023/05/19 11:04:16;;;;;;;;;;;;;;;;;;5040042;28;20303;-44
2023/05/19 11:06:42;;;;;;;;;;;;;;;;;;5026771;28;20219;-43
2023/05/19 11:09:07;;;;;;;;;;;;;;;;;;5026964;28;19909;-43
2023/05/19 11:11:33;;;;;;;;;;;;;;;;;;5026922;28;19916;-43
2023/05/19 11:13:59;;;;;;;;;;;;;;;;;;5026995;28;19995;-44
2023/05/19 11:16:25;;;;;;;;;;;;;;;;;;5027793;28;19905;-43
2023/05/19 11:18:51;;;;;;;;;;;;;;;;;;5027700;28;20557;-43
2023/05/19 11:21:17;;;;;;;;;;;;;;;;;;5026943;28;19916;-43
2023/05/19 11:23:44;;;;;;;;;;;;;;;;;;5027224;28;20445;-43
2023/05/19 11:26:10;;;;;;;;;;;;;;;;;;5026583;28;19909;-43
2023/05/19 11:28:36;;;;;;;;;;;;;;;;;;5026769;28;19956;-44
2023/05/19 11:31:02;;;;;;;;;;;;;;;;;;5026825;28;19959;-43
2023/05/19 11:33:29;;;;;;;;;;;;;;;;;;5026649;28;20152;-43
2023/05/19 11:35:56;;;;;;;;;;;;;;;;;;5027478;28;19905;-45
2023/05/19 11:38:22;;;;;;;;;;;;;;;;;;5027169;28;20355;-43
2023/05/19 11:40:49;;;;;;;;;;;;;;;;;;5026396;28;20003;-44
2023/05/19 11:43:15;;;;;;;;;;;;;;;;;;5026401;28;20277;-43
2023/05/19 11:45:41;;;;;;;;;;;;;;;;;;5026567;28;19912;-43
2023/05/19 11:48:09;;;;;;;;;;;;;;;;;;5026258;28;19916;-42
2023/05/19 11:50:37;;;;;;;;;;;;;;;;;;5026345;28;19905;-46
2023/05/19 11:53:02;;;;;;;;;;;;;;;;;;5026237;28;19931;-42
2023/05/19 11:55:29;;;;;;;;;;;;;;;;;;5026073;28;20384;-44
2023/05/19 11:57:58;;;;;;;;;;;;;;;;;;5027060;28;19904;-46
2023/05/19 12:00:24;;;;;;;;;;;;;;;;;;5026776;28;19909;-42
2023/05/19 12:02:50;;;;;;;;;;;;;;;;;;5026681;28;19901;-44
2023/05/19 12:05:17;;;;;;;;;;;;;;;;;;5026125;28;19920;-43
2023/05/19 12:07:43;;;;;;;;;;;;;;;;;;5026140;28;19909;-43
2023/05/19 12:10:09;;;;;;;;;;;;;;;;;;5025650;28;19916;-43
2023/05/19 12:12:35;;;;;;;;;;;;;;;;;;5026216;28;19905;-43
2023/05/19 12:15:02;;;;;;;;;;;;;;;;;;5025912;28;19983;-43
2023/05/19 12:17:28;;;;;;;;;;;;;;;;;;5025998;28;20384;-43
2023/05/19 12:19:54;;;;;;;;;;;;;;;;;;5026309;28;19931;-44
2023/05/19 12:22:21;;;;;;;;;;;;;;;;;;5025884;28;19928;-43
2023/05/19 12:24:47;;;;;;;;;;;;;;;;;;5025688;28;20030;-44
2023/05/19 12:27:13;;;;;;;;;;;;;;;;;;5025800;28;19976;-45
2023/05/19 12:29:39;;;;;;;;;;;;;;;;;;5025806;28;19905;-44
2023/05/19 12:32:05;;;;;;;;;;;;;;;;;;5025788;28;19908;-43
2023/05/19 12:34:30;;;;;;;;;;;;;;;;;;5026155;28;19955;-42
2023/05/19 12:36:56;;;;;;;;;;;;;;;;;;5026020;28;20003;-43
2023/05/19 12:39:23;;;;;;;;;;;;;;;;;;5025862;28;19956;-42
2023/05/19 12:41:49;;;;;;;;;;;;;;;;;;5025718;28;19909;-45
2023/05/19 12:44:15;;;;;;;;;;;;;;;;;;5025634;28;20394;-43
2023/05/19 12:46:41;;;;;;;;;;;;;;;;;;5025921;28;19948;-43
2023/05/19 12:49:07;;;;;;;;;;;;;;;;;;5025635;28;20316;-45
2023/05/19 12:51:33;;;;;;;;;;;;;;;;;;5025576;28;19916;-43
2023/05/19 12:53:59;;;;;;;;;;;;;;;;;;5025376;28;19956;-42
2023/05/19 12:56:25;;;;;;;;;;;;;;;;;;5026270;28;19988;-43
2023/05/19 12:58:51;;;;;;;;;;;;;;;;;;5026128;28;19959;-43
2023/05/19 13:01:17;;;;;;;;;;;;;;;;;;5025316;28;20307;-45
2023/05/19 13:03:43;;;;;;;;;;;;;;;;;;5035609;28;19952;-43
2023/05/19 13:06:09;;;;;;;;;;;;;;;;;;5045686;28;19916;-42
2023/05/19 13:08:35;;;;;;;;;;;;;;;;;;5035103;28;19913;-42
2023/05/19 13:11:01;;;;;;;;;;;;;;;;;;5025360;28;19905;-42
2023/05/19 13:13:27;;;;;;;;;;;;;;;;;;5025746;28;20356;-42
2023/05/19 13:15:53;;;;;;;;;;;;;;;;;;5026208;28;19949;-42
2023/05/19 13:18:18;;;;;;;;;;;;;;;;;;5025217;28;19916;-43
2023/05/19 13:20:45;;;;;;;;;;;;;;;;;;5025264;28;19955;-43
2023/05/19 13:23:11;;;;;;;;;;;;;;;;;;5025272;28;19913;-45
2023/05/19 13:25:38;;;;;;;;;;;;;;;;;;5025216;28;19999;-43
2023/05/19 13:28:04;;;;;;;;;;;;;;;;;;5025497;28;19912;-43
2023/05/19 13:30:31;;;;;;;;;;;;;;;;;;5026636;28;20048;-43
2023/05/19 13:32:57;;;;;;;;;;;;;;;;;;5028984;28;19967;-41
2023/05/19 13:35:24;;;;;;;;;;;;;;;;;;5029449;28;19905;-44
2023/05/19 13:37:50;;;;;;;;;;;;;;;;;;5028762;28;19909;-43
2023/05/19 13:40:16;;;;;;;;;;;;;;;;;;5028784;28;19915;-45
2023/05/19 13:42:42;;;;;;;;;;;;;;;;;;5028857;28;19912;-43
2023/05/19 13:45:08;;;;;;;;;;;;;;;;;;5028501;28;19916;-42
2023/05/19 13:47:34;;;;;;;;;;;;;;;;;;5028816;28;19983;-42
2023/05/19 13:50:00;;;;;;;;;;;;;;;;;;5028422;28;19909;-45
2023/05/19 13:52:25;;;;;;;;;;;;;;;;;;5029312;28;19913;-43
2023/05/19 13:54:56;;;;;;;;;;;;;;;;;;5028619;28;19912;-45
2023/05/19 13:57:22;;;;;;;;;;;;;;;;;;5028439;28;20442;-42
2023/05/19 13:59:47;;;;;;;;;;;;;;;;;;5028643;28;19913;-46
2023/05/19 14:02:13;;;;;;;;;;;;;;;;;;5028577;28;19905;-43
2023/05/19 14:04:39;;;;;;;;;;;;;;;;;;5028180;28;19922;-45
2023/05/19 14:07:05;;;;;;;;;;;;;;;;;;5043710;28;20419;-43
2023/05/19 14:09:32;;;;;;;;;;;;;;;;;;5028177;28;19942;-44
2023/05/19 14:11:58;;;;;;;;;;;;;;;;;;5028308;28;20392;-45
2023/05/19 14:14:24;;;;;;;;;;;;;;;;;;5028920;28;19955;-44
2023/05/19 14:16:50;;;;;;;;;;;;;;;;;;5028452;28;19912;-45
2023/05/19 14:19:16;;;;;;;;;;;;;;;;;;5031948;28;19967;-42
2023/05/19 14:21:42;;;;;;;;;;;;;;;;;;5042924;28;20284;-45
2023/05/19 14:24:08;;;;;;;;;;;;;;;;;;5048042;28;19935;-45
2023/05/19 14:26:34;;;;;;;;;;;;;;;;;;5048346;28;19909;-42
2023/05/19 14:29:00;;;;;;;;;;;;;;;;;;5049198;28;19939;-43
2023/05/19 14:31:26;;;;;;;;;;;;;;;;;;5048940;28;20411;-45
2023/05/19 14:33:51;;;;;;;;;;;;;;;;;;5047936;28;20093;-44
2023/05/19 14:36:17;;;;;;;;;;;;;;;;;;5048213;28;20063;-47
2023/05/19 14:38:43;;;;;;;;;;;;;;;;;;5047903;28;19905;-44
2023/05/19 14:41:09;;;;;;;;;;;;;;;;;;5047853;28;19912;-44
2023/05/19 14:43:35;;;;;;;;;;;;;;;;;;5048120;28;19981;-44
2023/05/19 14:46:01;;;;;;;;;;;;;;;;;;5047719;28;19952;-45
2023/05/19 14:48:27;;;;;;;;;;;;;;;;;;5030009;28;19909;-44
2023/05/19 14:50:53;;;;;;;;;;;;;;;;;;5040612;28;19932;-44
2023/05/19 14:53:19;;;;;;;;;;;;;;;;;;5044453;28;19908;-45
2023/05/19 14:55:45;;;;;;;;;;;;;;;;;;5084208;28;19944;-44
2023/05/19 14:58:12;;;;;;;;;;;;;;;;;;5047979;28;19988;-44
2023/05/19 15:00:38;;;;;;;;;;;;;;;;;;5052857;28;20009;-45
2023/05/19 15:03:04;;;;;;;;;;;;;;;;;;5067432;28;20521;-44
2023/05/19 15:05:30;;;;;;;;;;;;;;;;;;5093832;28;19912;-45
2023/05/19 15:07:56;;;;;;;;;;;;;;;;;;5048126;28;20707;-44
2023/05/19 15:10:23;;;;;;;;;;;;;;;;;;5047677;28;20053;-45
2023/05/19 15:12:49;;;;;;;;;;;;;;;;;;5048014;28;19962;-44
2023/05/19 15:15:14;;;;;;;;;;;;;;;;;;5046955;28;19912;-47
2023/05/19 15:17:40;;;;;;;;;;;;;;;;;;5057886;28;19913;-45
2023/05/19 15:20:06;;;;;;;;;;;;;;;;;;5091038;28;20453;-45
2023/05/19 15:22:33;;;;;;;;;;;;;;;;;;5047554;28;19912;-47
2023/05/19 15:24:59;;;;;;;;;;;;;;;;;;5066462;28;20455;-45
2023/05/19 15:27:25;;;;;;;;;;;;;;;;;;5065244;28;19923;-45
2023/05/19 15:29:51;;;;;;;;;;;;;;;;;;5053781;28;19917;-44
2023/05/19 15:32:17;;;;;;;;;;;;;;;;;;5052245;28;19912;-45
2023/05/19 15:34:43;;;;;;;;;;;;;;;;;;5086709;28;19970;-44
2023/05/19 15:37:09;;;;;;;;;;;;;;;;;;5046501;28;19909;-46
2023/05/19 15:39:35;;;;;;;;;;;;;;;;;;5066756;28;19909;-44
2023/05/19 15:42:01;;;;;;;;;;;;;;;;;;5058922;28;19916;-44
2023/05/19 15:44:27;;;;;;;;;;;;;;;;;;5047161;28;19958;-46
2023/05/19 15:46:53;;;;;;;;;;;;;;;;;;5040637;28;20212;-44
2023/05/19 15:49:19;;;;;;;;;;;;;;;;;;5064246;28;19917;-45
2023/05/19 15:51:45;;;;;;;;;;;;;;;;;;5054202;28;19904;-46
2023/05/19 15:54:11;;;;;;;;;;;;;;;;;;5046703;28;19947;-45
2023/05/19 15:56:37;;;;;;;;;;;;;;;;;;5047232;28;20371;-45
2023/05/19 15:59:02;;;;;;;;;;;;;;;;;;5046445;28;19940;-49
2023/05/19 16:01:29;;;;;;;;;;;;;;;;;;5046408;28;19939;-45
2023/05/19 16:03:55;;;;;;;;;;;;;;;;;;5046787;28;19951;-45
2023/05/19 16:06:21;;;;;;;;;;;;;;;;;;5041228;28;19968;-45
2023/05/19 16:08:47;;;;;;;;;;;;;;;;;;5045062;28;19924;-44
2023/05/19 16:11:13;;;;;;;;;;;;;;;;;;5045141;28;20383;-44
2023/05/19 16:13:40;;;;;;;;;;;;;;;;;;5046327;28;19912;-45
2023/05/19 16:16:06;;;;;;;;;;;;;;;;;;5030590;28;19925;-45
2023/05/19 16:18:32;;;;;;;;;;;;;;;;;;5030472;28;19970;-45
2023/05/19 16:20:58;;;;;;;;;;;;;;;;;;5046695;28;19995;-45
2023/05/19 16:23:24;;;;;;;;;;;;;;;;;;5045220;28;20003;-46
2023/05/19 16:25:50;;;;;;;;;;;;;;;;;;5057981;28;20339;-44
2023/05/19 16:28:16;;;;;;;;;;;;;;;;;;5063020;28;19917;-45
2023/05/19 16:30:42;;;;;;;;;;;;;;;;;;5040630;28;19913;-44
2023/05/19 16:33:08;;;;;;;;;;;;;;;;;;5039358;28;19909;-45
2023/05/19 16:35:35;;;;;;;;;;;;;;;;;;5028260;28;19913;-46
2023/05/19 16:38:00;;;;;;;;;;;;;;;;;;5048608;28;19975;-44
2023/05/19 16:40:26;;;;;;;;;;;;;;;;;;5047765;28;19908;-45
2023/05/19 16:42:52;;;;;;;;;;;;;;;;;;5046345;28;19948;-45
2023/05/19 16:45:18;;;;;;;;;;;;;;;;;;5036236;28;19939;-44
2023/05/19 16:47:44;;;;;;;;;;;;;;;;;;5045007;28;19916;-44
2023/05/19 16:50:11;;;;;;;;;;;;;;;;;;5044297;28;19916;-44
2023/05/19 16:52:37;;;;;;;;;;;;;;;;;;5043222;28;20291;-44
2023/05/19 16:55:03;;;;;;;;;;;;;;;;;;5043526;28;19916;-45
2023/05/19 16:57:29;;;;;;;;;;;;;;;;;;5043490;28;19912;-42
2023/05/19 16:59:55;;;;;;;;;;;;;;;;;;5043647;28;20106;-42
2023/05/19 17:02:21;;;;;;;;;;;;;;;;;;5042480;28;20011;-41
2023/05/19 17:04:47;;;;;;;;;;;;;;;;;;5039142;28;19920;-44
2023/05/19 17:07:16;;;;;;;;;;;;;;;;;;5044824;28;19982;-41
2023/05/19 17:09:42;;;;;;;;;;;;;;;;;;5046445;28;19919;-42
2023/05/19 17:12:08;;;;;;;;;;;;;;;;;;5042207;28;19909;-43
2023/05/19 17:14:34;;;;;;;;;;;;;;;;;;5040376;28;20302;-42
2023/05/19 17:17:00;;;;;;;;;;;;;;;;;;5048487;28;20086;-45
2023/05/19 17:19:26;;;;;;;;;;;;;;;;;;5045742;28;19991;-43
2023/05/19 17:21:52;;;;;;;;;;;;;;;;;;5048856;28;19912;-42
2023/05/19 17:24:18;;;;;;;;;;;;;;;;;;5047487;28;19917;-42
2023/05/19 17:26:43;;;;;;;;;;;;;;;;;;5047109;28;20004;-42
2023/05/19 17:29:09;;;;;;;;;;;;;;;;;;5048524;28;19909;-43
2023/05/19 17:31:35;;;;;;;;;;;;;;;;;;5049285;28;19913;-42
2023/05/19 17:34:01;;;;;;;;;;;;;;;;;;5037474;28;19919;-43
2023/05/19 17:36:27;;;;;;;;;;;;;;;;;;5043723;28;20372;-43
2023/05/19 17:38:53;;;;;;;;;;;;;;;;;;5048053;28;20274;-42
2023/05/19 17:41:19;;;;;;;;;;;;;;;;;;5047118;28;19967;-42
2023/05/19 17:43:45;;;;;;;;;;;;;;;;;;5047935;28;19920;-42
2023/05/19 17:46:11;;;;;;;;;;;;;;;;;;5040894;28;19944;-42
2023/05/19 17:48:38;;;;;;;;;;;;;;;;;;5043583;28;20368;-42
2023/05/19 17:51:06;;;;;;;;;;;;;;;;;;5047574;28;19939;-43
2023/05/19 17:53:32;;;;;;;;;;;;;;;;;;5052815;28;19917;-44
2023/05/19 17:55:58;;;;;;;;;;;;;;;;;;5046211;28;19988;-42
2023/05/19 17:58:24;;;;;;;;;;;;;;;;;;5047943;28;19920;-43
2023/05/19 18:00:50;;;;;;;;;;;;;;;;;;5044952;28;20498;-43
2023/05/19 18:03:16;;;;;;;;;;;;;;;;;;5048203;28;19928;-43
2023/05/19 18:05:43;;;;;;;;;;;;;;;;;;5046199;28;19940;-43
2023/05/19 18:08:09;;;;;;;;;;;;;;;;;;5043919;28;19916;-42
2023/05/19 18:10:35;;;;;;;;;;;;;;;;;;5043313;28;19913;-43
2023/05/19 18:13:02;;;;;;;;;;;;;;;;;;5042982;28;20134;-43
2023/05/19 18:15:28;;;;;;;;;;;;;;;;;;5044134;28;20000;-42
2023/05/19 18:17:53;;;;;;;;;;;;;;;;;;5042186;28;19991;-43
2023/05/19 18:20:20;;;;;;;;;;;;;;;;;;5045294;28;20372;-42
2023/05/19 18:22:46;;;;;;;;;;;;;;;;;;5042882;28;19913;-42
2023/05/19 18:25:13;;;;;;;;;;;;;;;;;;5044195;28;20660;-43
2023/05/19 18:27:41;;;;;;;;;;;;;;;;;;5046946;28;19931;-43
2023/05/19 18:30:07;;;;;;;;;;;;;;;;;;5049611;28;20138;-43
2023/05/19 18:32:34;;;;;;;;;;;;;;;;;;5047502;28;20459;-43
2023/05/19 18:35:00;;;;;;;;;;;;;;;;;;5045816;28;19915;-43
2023/05/19 18:37:27;;;;;;;;;;;;;;;;;;5044370;28;19935;-42
2023/05/19 18:39:53;;;;;;;;;;;;;;;;;;5045457;28;19916;-42
2023/05/19 18:42:19;;;;;;;;;;;;;;;;;;5043767;28;20374;-43
2023/05/19 18:44:46;;;;;;;;;;;;;;;;;;5043813;28;19913;-44
2023/05/19 18:47:12;;;;;;;;;;;;;;;;;;5043708;28;20156;-43
2023/05/19 18:49:37;;;;;;;;;;;;;;;;;;5045509;28;20280;-44
2023/05/19 18:52:03;;;;;;;;;;;;;;;;;;5043183;28;19923;-43
2023/05/19 18:54:31;;;;;;;;;;;;;;;;;;5044121;28;20343;-44
2023/05/19 18:56:57;;;;;;;;;;;;;;;;;;5046231;28;19998;-41
2023/05/19 18:59:24;;;;;;;;;;;;;;;;;;5045752;28;20407;-43
2023/05/19 19:01:50;;;;;;;;;;;;;;;;;;5043977;28;19908;-45
2023/05/19 19:04:16;;;;;;;;;;;;;;;;;;5045698;28;19927;-42
2023/05/19 19:06:42;;;;;;;;;;;;;;;;;;5036598;28;19913;-43
2023/05/19 19:09:08;;;;;;;;;;;;;;;;;;5046215;28;20437;-43
2023/05/19 19:11:34;;;;;;;;;;;;;;;;;;5043936;28;19962;-42
2023/05/19 19:14:01;;;;;;;;;;;;;;;;;;5033933;28;19909;-43
2023/05/19 19:16:27;;;;;;;;;;;;;;;;;;5036619;28;19913;-42
2023/05/19 19:18:52;;;;;;;;;;;;;;;;;;5046181;28;20295;-43
2023/05/19 19:21:21;;;;;;;;;;;;;;;;;;5043431;28;19912;-45
2023/05/19 19:23:46;;;;;;;;;;;;;;;;;;5045009;28;19912;-43
2023/05/19 19:26:12;;;;;;;;;;;;;;;;;;5031905;28;19912;-42
2023/05/19 19:28:39;;;;;;;;;;;;;;;;;;5044531;28;20057;-42
2023/05/19 19:31:06;;;;;;;;;;;;;;;;;;5044945;28;20010;-42
2023/05/19 19:33:33;;;;;;;;;;;;;;;;;;5038237;28;19913;-42
2023/05/19 19:35:59;;;;;;;;;;;;;;;;;;5043529;28;19982;-43
2023/05/19 19:38:25;;;;;;;;;;;;;;;;;;5041343;28;20150;-42
2023/05/19 19:40:51;;;;;;;;;;;;;;;;;;5043580;28;20386;-43
2023/05/19 19:43:17;;;;;;;;;;;;;;;;;;5044894;28;19916;-42
2023/05/19 19:45:43;;;;;;;;;;;;;;;;;;5045070;28;19912;-41
2023/05/19 19:48:10;;;;;;;;;;;;;;;;;;5044259;28;19908;-42
2023/05/19 19:50:36;;;;;;;;;;;;;;;;;;5043809;28;19955;-42
2023/05/19 19:53:02;;;;;;;;;;;;;;;;;;5043719;28;19917;-44
2023/05/19 19:55:29;;;;;;;;;;;;;;;;;;5038040;28;20302;-44
2023/05/19 19:57:55;;;;;;;;;;;;;;;;;;5041969;28;19935;-44
2023/05/19 20:00:22;;;;;;;;;;;;;;;;;;5043661;28;19908;-45
2023/05/19 20:02:48;;;;;;;;;;;;;;;;;;5025528;28;20308;-44
2023/05/19 20:05:14;;;;;;;;;;;;;;;;;;5024834;28;19909;-43
2023/05/19 20:07:40;;;;;;;;;;;;;;;;;;5038510;28;19913;-44
2023/05/19 20:10:06;;;;;;;;;;;;;;;;;;5044972;28;20435;-46
2023/05/19 20:12:33;;;;;;;;;;;;;;;;;;5044342;28;20326;-42
2023/05/19 20:14:59;;;;;;;;;;;;;;;;;;5043449;28;19916;-46
2023/05/19 20:17:25;;;;;;;;;;;;;;;;;;5043114;28;19962;-43
2023/05/19 20:19:51;;;;;;;;;;;;;;;;;;5042996;28;19917;-43
2023/05/19 20:22:16;;;;;;;;;;;;;;;;;;5044092;28;20419;-44
2023/05/19 20:24:42;;;;;;;;;;;;;;;;;;5043775;28;19959;-44
2023/05/19 20:27:09;;;;;;;;;;;;;;;;;;5045566;28;20375;-44
2023/05/19 20:29:35;;;;;;;;;;;;;;;;;;5044453;28;19909;-43
2023/05/19 20:32:01;;;;;;;;;;;;;;;;;;5044157;28;20018;-47
2023/05/19 20:34:28;;;;;;;;;;;;;;;;;;5043896;28;20396;-43
2023/05/19 20:36:55;;;;;;;;;;;;;;;;;;5038572;28;19912;-43
2023/05/19 20:39:21;;;;;;;;;;;;;;;;;;5040665;28;19947;-43
2023/05/19 20:41:47;;;;;;;;;;;;;;;;;;5034210;28;19960;-44
2023/05/19 20:44:13;;;;;;;;;;;;;;;;;;5042767;28;19921;-43
2023/05/19 20:46:40;;;;;;;;;;;;;;;;;;5043063;28;19919;-43
2023/05/19 20:49:06;;;;;;;;;;;;;;;;;;5042390;28;19959;-44
2023/05/19 20:51:32;;;;;;;;;;;;;;;;;;5043556;28;19978;-42
2023/05/19 20:53:58;;;;;;;;;;;;;;;;;;5044323;28;20051;-44
2023/05/19 20:56:24;;;;;;;;;;;;;;;;;;5044345;28;20326;-43
2023/05/19 20:58:50;;;;;;;;;;;;;;;;;;5043878;28;19916;-43
2023/05/19 21:01:16;;;;;;;;;;;;;;;;;;5045606;28;19912;-46
2023/05/19 21:03:42;;;;;;;;;;;;;;;;;;5031985;28;19991;-44
2023/05/19 21:06:08;;;;;;;;;;;;;;;;;;5024173;28;19916;-44
2023/05/19 21:08:35;;;;;;;;;;;;;;;;;;5029157;28;19974;-43
2023/05/19 21:11:01;;;;;;;;;;;;;;;;;;5044474;28;19905;-43
2023/05/19 21:13:28;;;;;;;;;;;;;;;;;;5042939;28;19967;-44
2023/05/19 21:15:54;;;;;;;;;;;;;;;;;;5044001;28;19915;-46
2023/05/19 21:18:20;;;;;;;;;;;;;;;;;;5043753;28;20310;-44
2023/05/19 21:20:46;;;;;;;;;;;;;;;;;;5043606;28;20274;-43
2023/05/19 21:23:11;;;;;;;;;;;;;;;;;;5043067;28;19905;-43
2023/05/19 21:25:38;;;;;;;;;;;;;;;;;;5044173;28;19999;-44
2023/05/19 21:28:05;;;;;;;;;;;;;;;;;;5042356;28;20014;-46
2023/05/19 21:30:31;;;;;;;;;;;;;;;;;;5043971;28;19905;-47
2023/05/19 21:32:58;;;;;;;;;;;;;;;;;;5044569;28;19905;-44
2023/05/19 21:35:24;;;;;;;;;;;;;;;;;;5043673;28;19916;-43
2023/05/19 21:37:50;;;;;;;;;;;;;;;;;;5029995;28;19913;-43
2023/05/19 21:40:16;;;;;;;;;;;;;;;;;;5024273;28;20364;-44
2023/05/19 21:42:42;;;;;;;;;;;;;;;;;;5024027;28;19945;-43
2023/05/19 21:45:08;;;;;;;;;;;;;;;;;;5023698;28;19963;-46